createdAt,value
2023-03-05T00:02:23.580Z,78.55
2023-03-05T00:04:51.076Z,78.59
2023-03-05T00:07:18.540Z,79.88
2023-03-05T00:09:46.317Z,78.90
2023-03-05T00:12:13.893Z,80.33
2023-03-05T00:14:42.709Z,82.02
2023-03-05T00:17:10.208Z,81.30
2023-03-05T00:19:37.866Z,82.46
2023-03-05T00:22:05.374Z,81.60
2023-03-05T00:24:32.957Z,83.33
2023-03-05T00:27:00.432Z,83.89
2023-03-05T00:29:30.805Z,82.04
2023-03-05T00:32:00.710Z,82.34
2023-03-05T00:34:29.715Z,83.12
2023-03-05T00:36:57.353Z,82.95
2023-03-05T00:39:25.057Z,83.00
2023-03-05T00:41:52.614Z,84.42
2023-03-05T00:44:21.047Z,82.38
2023-03-05T00:46:48.893Z,82.35
2023-03-05T00:49:17.783Z,80.51
2023-03-05T00:51:45.564Z,81.86
2023-03-05T00:54:13.173Z,83.07
2023-03-05T00:56:40.668Z,83.40
2023-03-05T00:59:08.534Z,81.64
2023-03-05T01:01:36.260Z,81.76
2023-03-05T01:04:04.144Z,82.55
2023-03-05T01:06:33.148Z,84.21
2023-03-05T01:09:00.721Z,83.56
2023-03-05T01:11:28.299Z,81.48
2023-03-05T01:13:56.104Z,81.71
2023-03-05T01:16:23.739Z,83.12
2023-03-05T01:18:51.405Z,82.62
2023-03-05T01:21:18.882Z,83.83
2023-03-05T01:23:47.722Z,83.28
2023-03-05T01:26:15.346Z,81.39
2023-03-05T01:28:42.970Z,82.06
2023-03-05T01:31:11.538Z,80.94
2023-03-05T01:33:39.301Z,81.37
2023-03-05T01:36:13.428Z,81.50
2023-03-05T01:38:41.566Z,81.62
2023-03-05T01:41:11.532Z,81.86
2023-03-05T01:43:39.329Z,82.14
2023-03-05T01:46:37.970Z,81.38
2023-03-05T01:49:11.275Z,80.38
2023-03-05T01:51:42.732Z,80.26
2023-03-05T01:54:11.812Z,79.71
2023-03-05T01:56:41.136Z,80.12
2023-03-05T01:59:08.961Z,80.39
2023-03-05T02:01:40.688Z,79.92
2023-03-05T02:04:09.534Z,78.20
2023-03-05T02:06:37.574Z,79.20
2023-03-05T02:09:05.216Z,79.53
2023-03-05T02:11:33.620Z,78.64
2023-03-05T02:14:02.957Z,80.33
2023-03-05T02:16:35.868Z,78.74
2023-03-05T02:19:04.794Z,79.07
2023-03-05T02:21:40.042Z,78.65
2023-03-05T02:24:08.081Z,78.22
2023-03-05T02:26:35.624Z,79.35
2023-03-05T02:29:04.167Z,78.64
2023-03-05T02:31:32.811Z,78.70
2023-03-05T02:34:00.448Z,80.10
2023-03-05T02:36:27.925Z,77.35
2023-03-05T02:38:57.159Z,77.94
2023-03-05T02:41:25.070Z,80.88
2023-03-05T02:43:52.572Z,80.12
2023-03-05T02:46:21.306Z,78.37
2023-03-05T02:48:49.953Z,76.94
2023-03-05T02:51:17.548Z,78.92
2023-03-05T02:53:45.225Z,78.70
2023-03-05T02:56:14.097Z,79.45
2023-03-05T02:58:41.933Z,77.93
2023-03-05T03:01:10.038Z,80.16
2023-03-05T03:03:38.008Z,81.40
2023-03-05T03:06:06.253Z,81.67
2023-03-05T03:08:33.736Z,82.23
2023-03-05T03:11:06.567Z,80.68
2023-03-05T03:13:35.608Z,79.94
2023-03-05T03:16:04.024Z,77.94
2023-03-05T03:18:31.556Z,79.34
2023-03-05T03:20:59.215Z,79.89
2023-03-05T03:23:26.717Z,80.41
2023-03-05T03:25:54.254Z,80.71
2023-03-05T03:28:21.849Z,81.25
2023-03-05T03:30:50.979Z,81.68
2023-03-05T03:33:18.936Z,81.96
2023-03-05T03:35:47.003Z,81.07
2023-03-05T03:38:14.681Z,81.85
2023-03-05T03:40:42.474Z,79.78
2023-03-05T03:43:10.178Z,81.77
2023-03-05T03:45:41.632Z,82.20
2023-03-05T03:48:10.500Z,83.16
2023-03-05T03:50:39.708Z,83.21
2023-03-05T03:53:07.454Z,81.54
2023-03-05T03:55:35.370Z,80.91
2023-03-05T03:58:03.309Z,80.93
2023-03-05T04:00:30.789Z,79.61
2023-03-05T04:02:58.271Z,80.08
2023-03-05T04:05:27.072Z,81.73
2023-03-05T04:07:54.731Z,82.00
2023-03-05T04:10:22.224Z,80.55
2023-03-05T04:12:49.698Z,81.68
2023-03-05T04:15:18.140Z,80.16
2023-03-05T04:17:45.634Z,82.16
2023-03-05T04:20:13.659Z,80.57
2023-03-05T04:22:42.474Z,81.59
2023-03-05T04:25:10.734Z,83.18
2023-03-05T04:27:40.255Z,83.25
2023-03-05T04:30:09.582Z,83.91
2023-03-05T04:32:37.129Z,82.66
2023-03-05T04:35:05.125Z,81.90
2023-03-05T04:37:32.664Z,83.82
2023-03-05T04:40:01.478Z,82.63
2023-03-05T04:42:28.981Z,84.41
2023-03-05T04:44:56.495Z,82.67
2023-03-05T04:47:24.083Z,84.37
2023-03-05T04:49:51.697Z,83.19
2023-03-05T04:52:19.187Z,82.46
2023-03-05T04:54:46.884Z,83.53
2023-03-05T04:57:15.682Z,83.66
2023-03-05T04:59:43.211Z,84.35
2023-03-05T05:02:10.696Z,82.46
2023-03-05T05:04:38.178Z,82.91
2023-03-05T05:07:07.598Z,85.25
2023-03-05T05:09:35.117Z,85.78
2023-03-05T05:12:02.679Z,81.76
2023-03-05T05:14:31.565Z,84.03
2023-03-05T05:16:59.652Z,82.93
2023-03-05T05:19:27.172Z,83.93
2023-03-05T05:21:54.701Z,84.73
2023-03-05T05:24:22.164Z,84.56
2023-03-05T05:26:49.680Z,83.97
2023-03-05T05:29:17.159Z,81.31
2023-03-05T05:31:46.374Z,84.26
2023-03-05T05:34:14.110Z,85.82
2023-03-05T05:36:41.607Z,85.75
2023-03-05T05:39:09.440Z,85.58
2023-03-05T05:41:37.050Z,86.57
2023-03-05T05:44:04.754Z,85.16
2023-03-05T05:46:32.294Z,84.68
2023-03-05T05:49:01.158Z,85.70
2023-03-05T05:51:28.815Z,83.67
2023-03-05T05:53:56.326Z,84.31
2023-03-05T05:56:23.820Z,83.42
2023-03-05T05:58:51.318Z,85.11
2023-03-05T06:01:22.276Z,85.97
2023-03-05T06:03:49.781Z,84.59
2023-03-05T06:06:20.180Z,85.78
2023-03-05T06:08:47.676Z,85.18
2023-03-05T06:11:17.109Z,85.78
2023-03-05T06:13:46.295Z,85.21
2023-03-05T06:16:15.309Z,86.09
2023-03-05T06:18:43.264Z,85.18
2023-03-05T06:21:12.800Z,85.57
2023-03-05T06:23:42.979Z,85.26
2023-03-05T06:26:12.531Z,85.53
2023-03-05T06:28:40.078Z,86.35
2023-03-05T06:31:09.069Z,85.27
2023-03-05T06:33:37.076Z,84.82
2023-03-05T06:36:04.811Z,85.49
2023-03-05T06:38:32.619Z,86.64
2023-03-05T06:41:05.605Z,86.62
2023-03-05T06:43:35.493Z,85.92
2023-03-05T06:46:04.648Z,85.85
2023-03-05T06:48:32.458Z,84.48
2023-03-05T06:50:59.985Z,84.57
2023-03-05T06:53:27.531Z,83.41
2023-03-05T06:55:55.067Z,84.06
2023-03-05T06:58:23.907Z,84.26
2023-03-05T07:00:51.389Z,84.02
2023-03-05T07:03:19.144Z,84.94
2023-03-05T07:05:46.698Z,85.07
2023-03-05T07:08:14.190Z,84.35
2023-03-05T07:10:42.978Z,85.03
2023-03-05T07:13:11.269Z,86.06
2023-03-05T07:15:41.228Z,83.78
2023-03-05T07:18:09.187Z,83.68
2023-03-05T07:20:38.758Z,85.72
2023-03-05T07:23:06.280Z,82.54
2023-03-05T07:25:36.856Z,81.71
2023-03-05T07:28:05.364Z,81.29
2023-03-05T07:30:33.060Z,81.10
2023-03-05T07:33:02.065Z,83.55
2023-03-05T07:35:29.647Z,82.26
2023-03-05T07:37:57.205Z,81.39
2023-03-05T07:40:24.748Z,81.52
2023-03-05T07:42:52.338Z,83.22
2023-03-05T07:45:20.028Z,83.23
2023-03-05T07:47:47.691Z,85.83
2023-03-05T07:50:17.421Z,84.21
2023-03-05T07:52:44.905Z,84.30
2023-03-05T07:55:12.466Z,83.67
2023-03-05T07:57:39.955Z,83.19
2023-03-05T08:00:08.751Z,82.48
2023-03-05T08:02:36.284Z,83.76
2023-03-05T08:05:04.171Z,84.20
2023-03-05T08:07:32.999Z,84.25
2023-03-05T08:10:00.468Z,84.89
2023-03-05T08:12:27.967Z,85.09
2023-03-05T08:14:55.464Z,86.88
2023-03-05T08:17:22.938Z,86.96
2023-03-05T08:19:50.446Z,87.89
2023-03-05T08:22:20.440Z,87.33
2023-03-05T08:24:50.444Z,85.88
2023-03-05T08:27:17.997Z,85.54
2023-03-05T08:29:45.528Z,85.14
2023-03-05T08:32:13.600Z,83.88
2023-03-05T08:34:41.243Z,83.74
2023-03-05T08:37:09.222Z,83.15
2023-03-05T08:39:36.738Z,82.50
2023-03-05T08:42:08.880Z,82.78
2023-03-05T08:44:36.539Z,84.10
2023-03-05T08:47:04.027Z,84.23
2023-03-05T08:49:31.552Z,83.07
2023-03-05T08:51:59.057Z,82.01
2023-03-05T08:54:26.556Z,82.93
2023-03-05T08:56:54.019Z,83.34
2023-03-05T08:59:22.798Z,81.74
2023-03-05T09:01:50.738Z,81.53
2023-03-05T09:04:18.741Z,80.81
2023-03-05T09:06:46.203Z,80.60
2023-03-05T09:09:14.136Z,81.05
2023-03-05T09:11:41.654Z,80.89
2023-03-05T09:14:09.284Z,80.30
2023-03-05T09:16:40.471Z,81.22
2023-03-05T09:19:08.932Z,82.18
2023-03-05T09:21:36.403Z,80.78
2023-03-05T09:24:04.357Z,84.68
2023-03-05T09:26:31.851Z,84.94
2023-03-05T09:28:59.376Z,85.16
2023-03-05T09:31:26.894Z,85.57
2023-03-05T09:33:55.694Z,83.20
2023-03-05T09:36:25.114Z,82.80
2023-03-05T09:38:53.208Z,82.77
2023-03-05T09:41:30.209Z,83.93
2023-03-05T09:44:04.760Z,83.46
2023-03-05T09:46:42.755Z,81.98
2023-03-05T09:49:17.415Z,82.53
2023-03-05T09:51:46.741Z,82.32
2023-03-05T09:54:17.105Z,80.35
2023-03-05T09:56:47.986Z,80.57
2023-03-05T09:59:23.369Z,81.76
2023-03-05T10:01:53.023Z,81.28
2023-03-05T10:04:25.124Z,81.81
2023-03-05T10:06:57.512Z,82.21
2023-03-05T10:09:36.963Z,82.05
2023-03-05T10:12:07.349Z,80.75
2023-03-05T10:14:36.236Z,80.47
2023-03-05T10:17:33.158Z,79.76
2023-03-05T10:20:36.806Z,79.91
2023-03-05T10:23:12.456Z,80.75
2023-03-05T10:25:51.865Z,79.79
2023-03-05T10:28:23.010Z,80.86
2023-03-05T10:31:02.058Z,83.09
2023-03-05T10:33:36.364Z,82.47
2023-03-05T10:36:17.994Z,82.89
2023-03-05T10:39:05.178Z,83.24
2023-03-05T10:41:37.555Z,83.42
2023-03-05T10:44:10.826Z,83.94
2023-03-05T10:46:39.307Z,83.90
2023-03-05T10:49:16.172Z,85.20
2023-03-05T10:51:51.766Z,84.42
2023-03-05T10:54:25.435Z,85.08
2023-03-05T10:57:04.516Z,85.27
2023-03-05T10:59:33.101Z,85.47
2023-03-05T11:02:05.835Z,85.17
2023-03-05T11:04:36.923Z,84.86
2023-03-05T11:07:31.355Z,85.00
2023-03-05T11:10:16.858Z,84.98
2023-03-05T11:12:45.051Z,84.98
2023-03-05T11:15:28.546Z,84.62
2023-03-05T11:18:10.924Z,82.37
2023-03-05T11:20:39.883Z,82.37
2023-03-05T11:23:13.076Z,80.93
2023-03-05T11:25:54.832Z,81.04
2023-03-05T11:28:33.064Z,79.57
2023-03-05T11:31:04.825Z,78.28
2023-03-05T11:33:32.505Z,78.97
2023-03-05T11:36:23.830Z,76.60
2023-03-05T11:38:55.038Z,76.27
2023-03-05T11:41:28.280Z,75.20
2023-03-05T11:43:56.885Z,75.01
2023-03-05T11:46:24.967Z,71.86
2023-03-05T11:48:54.406Z,72.77
2023-03-05T11:51:24.070Z,71.60
2023-03-05T11:53:56.056Z,72.89
2023-03-05T11:56:26.834Z,72.32
2023-03-05T11:58:58.721Z,72.95
2023-03-05T12:01:28.856Z,72.09
2023-03-05T12:03:56.734Z,72.75
2023-03-05T12:06:30.626Z,70.19
2023-03-05T12:09:01.710Z,69.51
2023-03-05T12:11:30.840Z,68.88
2023-03-05T12:14:00.433Z,68.76
2023-03-05T12:16:30.661Z,69.33
2023-03-05T12:19:30.637Z,70.09
2023-03-05T12:21:58.419Z,66.79
2023-03-05T12:24:38.468Z,68.03
2023-03-05T12:27:11.570Z,67.47
2023-03-05T12:29:41.729Z,70.75
2023-03-05T12:32:43.100Z,70.20
2023-03-05T12:35:24.349Z,66.87
2023-03-05T12:38:01.794Z,68.38
2023-03-05T12:40:32.761Z,67.72
2023-03-05T12:43:01.653Z,69.75
2023-03-05T12:45:37.478Z,69.67
2023-03-05T12:48:43.953Z,69.73
2023-03-05T12:51:16.094Z,71.00
2023-03-05T12:53:43.832Z,72.05
2023-03-05T12:56:19.620Z,73.36
2023-03-05T12:58:49.006Z,73.33
2023-03-05T13:01:28.744Z,73.97
2023-03-05T13:03:57.881Z,74.76
2023-03-05T13:06:27.969Z,74.35
2023-03-05T13:09:00.480Z,74.42
2023-03-05T13:11:31.491Z,75.00
2023-03-05T13:13:59.477Z,77.14
2023-03-05T13:16:29.567Z,77.48
2023-03-05T13:18:59.648Z,76.74
2023-03-05T13:21:29.023Z,75.26
2023-03-05T13:23:59.197Z,77.64
2023-03-05T13:26:27.479Z,77.81
2023-03-05T13:29:08.205Z,77.22
2023-03-05T13:31:36.983Z,75.13
2023-03-05T13:34:12.474Z,74.79
2023-03-05T13:36:40.981Z,73.34
2023-03-05T13:39:08.454Z,75.08
2023-03-05T13:41:35.972Z,73.52
2023-03-05T13:44:03.828Z,74.25
2023-03-05T13:46:34.804Z,72.76
2023-03-05T13:49:19.143Z,72.33
2023-03-05T13:51:48.240Z,72.97
2023-03-05T13:54:17.823Z,71.85
2023-03-05T13:56:53.606Z,73.34
2023-03-05T13:59:22.742Z,72.78
2023-03-05T14:01:52.656Z,73.23
2023-03-05T14:04:23.040Z,71.49
2023-03-05T14:06:54.757Z,72.49
2023-03-05T14:09:33.415Z,72.98
2023-03-05T14:12:03.449Z,71.86
2023-03-05T14:14:32.563Z,70.76
2023-03-05T14:17:33.257Z,71.64
2023-03-05T14:20:21.513Z,70.83
2023-03-05T14:22:50.177Z,69.43
2023-03-05T14:25:29.062Z,71.22
2023-03-05T14:27:57.065Z,69.55
2023-03-05T14:30:25.989Z,71.17
2023-03-05T14:32:55.411Z,71.70
2023-03-05T14:35:27.290Z,71.51
2023-03-05T14:37:56.642Z,72.05
2023-03-05T14:40:28.779Z,71.86
2023-03-05T14:42:56.734Z,73.11
2023-03-05T14:45:26.424Z,72.92
2023-03-05T14:47:55.225Z,72.03
2023-03-05T14:50:25.796Z,71.36
2023-03-05T14:52:57.102Z,74.32
2023-03-05T14:55:26.545Z,74.64
2023-03-05T14:58:04.277Z,75.57
2023-03-05T15:00:32.404Z,76.15
2023-03-05T15:03:00.098Z,74.84
2023-03-05T15:05:29.067Z,74.97
2023-03-05T15:07:56.655Z,74.32
2023-03-05T15:10:25.945Z,75.46
2023-03-05T15:12:53.841Z,74.23
2023-03-05T15:15:22.397Z,77.44
2023-03-05T15:17:54.621Z,76.17
2023-03-05T15:20:23.995Z,77.25
2023-03-05T15:22:53.184Z,76.23
2023-03-05T15:25:22.083Z,76.70
2023-03-05T15:27:50.865Z,75.89
2023-03-05T15:30:23.348Z,76.48
2023-03-05T15:32:51.376Z,77.48
2023-03-05T15:35:20.281Z,77.19
2023-03-05T15:37:47.846Z,76.10
2023-03-05T15:40:16.803Z,75.75
2023-03-05T15:42:44.351Z,77.07
2023-03-05T15:45:12.149Z,76.94
2023-03-05T15:47:39.874Z,74.31
2023-03-05T15:50:09.310Z,76.73
2023-03-05T15:52:36.890Z,76.88
2023-03-05T15:55:05.068Z,74.59
2023-03-05T15:57:35.842Z,74.07
2023-03-05T16:00:05.188Z,72.62
2023-03-05T16:02:33.129Z,75.49
2023-03-05T16:05:01.737Z,75.21
2023-03-05T16:07:30.870Z,75.49
2023-03-05T16:09:59.296Z,74.63
2023-03-05T16:12:29.030Z,74.24
2023-03-05T16:14:57.952Z,73.83
2023-03-05T16:17:25.867Z,71.99
2023-03-05T16:19:55.090Z,73.87
2023-03-05T16:22:23.807Z,72.53
2023-03-05T16:24:51.324Z,71.02
2023-03-05T16:27:19.029Z,72.92
2023-03-05T16:29:46.949Z,71.38
2023-03-05T16:32:17.497Z,72.81
2023-03-05T16:34:45.172Z,73.96
2023-03-05T16:37:19.302Z,72.86
2023-03-05T16:39:47.398Z,72.54
2023-03-05T16:42:15.196Z,72.24
2023-03-05T16:44:43.583Z,71.68
2023-03-05T16:47:12.242Z,70.91
2023-03-05T16:49:41.346Z,72.70
2023-03-05T16:52:19.934Z,72.33
2023-03-05T16:54:48.663Z,73.19
2023-03-05T16:57:16.686Z,72.81
2023-03-05T16:59:44.554Z,72.62
2023-03-05T17:02:13.279Z,72.48
2023-03-05T17:04:43.599Z,70.96
2023-03-05T17:07:11.267Z,72.70
2023-03-05T17:09:38.931Z,72.50
2023-03-05T17:12:07.160Z,72.49
2023-03-05T17:14:35.000Z,72.33
2023-03-05T17:17:02.698Z,72.01
2023-03-05T17:19:31.811Z,71.72
2023-03-05T17:22:00.996Z,71.64
2023-03-05T17:24:28.847Z,71.60
2023-03-05T17:26:56.694Z,71.30
2023-03-05T17:29:24.827Z,71.21
2023-03-05T17:31:53.530Z,72.98
2023-03-05T17:34:33.203Z,72.49
2023-03-05T17:37:03.119Z,71.34
2023-03-05T17:39:30.801Z,71.44
2023-03-05T17:41:58.287Z,70.80
2023-03-05T17:44:25.837Z,70.70
2023-03-05T17:46:54.392Z,72.36
2023-03-05T17:49:22.047Z,71.50
2023-03-05T17:51:49.719Z,71.22
2023-03-05T17:54:18.762Z,71.54
2023-03-05T17:56:48.018Z,71.65
2023-03-05T17:59:16.349Z,70.77
2023-03-05T18:01:44.102Z,71.45
2023-03-05T18:04:12.732Z,72.91
2023-03-05T18:06:40.300Z,73.07
2023-03-05T18:09:08.008Z,73.22
2023-03-05T18:11:36.951Z,72.75
2023-03-05T18:14:04.487Z,72.33
2023-03-05T18:16:32.017Z,72.13
2023-03-05T18:18:59.807Z,72.60
2023-03-05T18:21:28.156Z,74.11
2023-03-05T18:23:55.799Z,73.89
2023-03-05T18:26:23.386Z,72.50
2023-03-05T18:28:52.204Z,72.68
2023-03-05T18:31:20.266Z,72.90
2023-03-05T18:33:47.749Z,73.91
2023-03-05T18:36:15.536Z,73.90
2023-03-05T18:38:43.409Z,73.46
2023-03-05T18:41:18.829Z,73.33
2023-03-05T18:43:46.885Z,74.98
2023-03-05T18:46:15.969Z,76.35
2023-03-05T18:48:43.660Z,76.49
2023-03-05T18:51:14.471Z,77.25
2023-03-05T18:53:41.961Z,79.79
2023-03-05T18:56:10.522Z,80.18
2023-03-05T18:58:39.535Z,81.48
2023-03-05T19:01:09.159Z,83.12
2023-03-05T19:03:38.162Z,84.28
2023-03-05T19:06:06.762Z,83.67
2023-03-05T19:08:34.559Z,84.15
2023-03-05T19:11:02.072Z,84.00
2023-03-05T19:13:35.804Z,82.98
2023-03-05T19:16:08.251Z,83.15
2023-03-05T19:18:43.018Z,80.54
2023-03-05T19:21:11.875Z,80.25
2023-03-05T19:23:39.586Z,80.78
2023-03-05T19:26:07.095Z,79.85
2023-03-05T19:28:34.574Z,77.78
2023-03-05T19:31:02.132Z,77.58
2023-03-05T19:33:29.743Z,77.49
2023-03-05T19:35:57.368Z,77.32
2023-03-05T19:38:26.382Z,77.31
2023-03-05T19:40:54.039Z,77.68
2023-03-05T19:43:21.592Z,76.97
2023-03-05T19:45:49.071Z,77.32
2023-03-05T19:48:16.867Z,77.88
2023-03-05T19:50:44.629Z,77.51
2023-03-05T19:53:12.119Z,76.99
2023-03-05T19:55:41.513Z,77.41
2023-03-05T19:58:08.976Z,78.22
2023-03-05T20:00:36.764Z,78.28
2023-03-05T20:03:04.385Z,77.83
2023-03-05T20:05:31.908Z,77.73
2023-03-05T20:07:59.525Z,76.70
2023-03-05T20:10:27.370Z,78.18
2023-03-05T20:12:57.714Z,77.72
2023-03-05T20:15:29.141Z,77.16
2023-03-05T20:17:56.742Z,77.92
2023-03-05T20:20:24.592Z,76.81
2023-03-05T20:22:54.849Z,77.19
2023-03-05T20:25:25.695Z,77.30
2023-03-05T20:27:53.526Z,77.26
2023-03-05T20:30:22.585Z,76.94
2023-03-05T20:32:50.066Z,76.52
2023-03-05T20:35:19.097Z,77.55
2023-03-05T20:38:00.055Z,77.42
2023-03-05T20:40:27.751Z,76.80
2023-03-05T20:42:55.415Z,77.40
2023-03-05T20:45:24.266Z,77.00
2023-03-05T20:47:51.755Z,77.59
2023-03-05T20:50:19.773Z,78.19
2023-03-05T20:52:47.496Z,77.02
2023-03-05T20:55:15.088Z,76.96
2023-03-05T20:57:44.114Z,76.80
2023-03-05T21:00:13.641Z,76.47
2023-03-05T21:02:42.435Z,77.04
2023-03-05T21:05:10.517Z,76.80
2023-03-05T21:07:38.264Z,76.67
2023-03-05T21:10:07.017Z,76.32
2023-03-05T21:12:34.644Z,76.44
2023-03-05T21:15:02.195Z,75.78
2023-03-05T21:17:29.955Z,76.78
2023-03-05T21:19:58.789Z,76.23
2023-03-05T21:22:26.288Z,75.68
2023-03-05T21:25:04.509Z,75.46
2023-03-05T21:27:32.017Z,75.41
2023-03-05T21:29:59.633Z,75.27
2023-03-05T21:32:27.310Z,75.47
2023-03-05T21:34:54.827Z,75.75
2023-03-05T21:37:23.876Z,76.60
2023-03-05T21:39:51.457Z,75.76
2023-03-05T21:42:18.968Z,75.68
2023-03-05T21:44:46.456Z,75.48
2023-03-05T21:47:13.960Z,75.91
2023-03-05T21:49:41.736Z,75.70
2023-03-05T21:52:11.565Z,75.83
2023-03-05T21:54:40.648Z,75.34
2023-03-05T21:57:09.105Z,75.42
2023-03-05T21:59:36.864Z,75.76
2023-03-05T22:02:04.453Z,75.51
2023-03-05T22:04:31.988Z,75.37
2023-03-05T22:06:59.505Z,75.27
2023-03-05T22:09:27.125Z,76.05
2023-03-05T22:11:55.921Z,75.97
2023-03-05T22:14:23.466Z,75.37
2023-03-05T22:16:53.295Z,74.90
2023-03-05T22:19:21.243Z,75.90
2023-03-05T22:21:48.936Z,75.44
2023-03-05T22:24:16.444Z,75.67
2023-03-05T22:26:43.929Z,75.91
2023-03-05T22:29:13.075Z,76.01
2023-03-05T22:31:41.473Z,75.28
2023-03-05T22:34:09.082Z,75.82
2023-03-05T22:36:36.744Z,75.84
2023-03-05T22:39:04.959Z,75.83
2023-03-05T22:41:32.559Z,76.11
2023-03-05T22:44:00.215Z,75.38
2023-03-05T22:46:29.099Z,75.73
2023-03-05T22:48:56.777Z,75.77
2023-03-05T22:51:24.534Z,75.51
2023-03-05T22:53:52.052Z,75.39
2023-03-05T22:56:20.882Z,74.93
2023-03-05T22:58:48.732Z,75.63
2023-03-05T23:01:18.230Z,75.43
2023-03-05T23:03:47.200Z,75.69
2023-03-05T23:06:14.845Z,75.74
2023-03-05T23:08:42.307Z,75.83
2023-03-05T23:11:11.150Z,75.61
2023-03-05T23:13:38.676Z,75.61
2023-03-05T23:16:06.619Z,75.34
2023-03-05T23:18:34.560Z,75.52
2023-03-05T23:21:03.496Z,75.80
2023-03-05T23:23:30.965Z,75.57
2023-03-05T23:25:58.441Z,75.54
2023-03-05T23:28:25.914Z,75.61
2023-03-05T23:30:53.444Z,75.79
2023-03-05T23:33:22.793Z,76.17
2023-03-05T23:35:53.038Z,75.94
2023-03-05T23:38:22.571Z,76.01
2023-03-05T23:40:53.822Z,75.68
2023-03-05T23:43:22.481Z,75.47
2023-03-05T23:45:50.233Z,76.03
2023-03-05T23:48:18.430Z,75.99
2023-03-05T23:50:48.412Z,75.63
2023-03-05T23:53:19.597Z,75.56
2023-03-05T23:55:48.775Z,75.88
2023-03-05T23:58:19.035Z,76.04
